Time;durP1;ratioP1;P1;durP2;ratioP2;P2;SDS_P1;SDS_P2;PMS_P1;PMS_P2;Temp;Humidity;BMP_temperature;BMP_pressure;BME280_temperature;BME280_humidity;BME280_pressure;Samples;Min_cycle;Max_cycle;Signal;HPM_P1;HPM_P2
2021/10/08 00:01:30;;;;;;;13.75;12.45;;;12.00;99.40;;;;;;5032210;28;20676;-61
2021/10/08 00:03:56;;;;;;;13.85;12.05;;;11.90;99.50;;;;;;5031559;28;20042;-56
2021/10/08 00:06:22;;;;;;;14.07;12.57;;;12.00;99.40;;;;;;5021876;28;20079;-60
2021/10/08 00:08:49;;;;;;;15.27;13.18;;;12.00;99.10;;;;;;5032643;28;20025;-61
2021/10/08 00:11:15;;;;;;;17.88;12.95;;;11.90;99.10;;;;;;5019484;28;20022;-61
2021/10/08 00:13:42;;;;;;;14.70;13.25;;;11.90;99.40;;;;;;5013195;28;20081;-56
2021/10/08 00:16:08;;;;;;;13.80;12.13;;;11.90;99.30;;;;;;5013531;28;20409;-62
2021/10/08 00:18:35;;;;;;;15.10;13.27;;;11.90;99.30;;;;;;5012741;28;20091;-58
2021/10/08 00:21:01;;;;;;;14.65;13.15;;;11.80;99.40;;;;;;5012475;28;20401;-60
2021/10/08 00:23:26;;;;;;;13.77;12.38;;;11.80;99.60;;;;;;5026402;28;20041;-61
2021/10/08 00:25:52;;;;;;;18.13;13.55;;;11.80;99.60;;;;;;5032626;28;20477;-61
2021/10/08 00:28:18;;;;;;;16.33;13.27;;;11.70;99.60;;;;;;5032248;28;20037;-59
2021/10/08 00:30:43;;;;;;;18.85;13.77;;;11.70;99.50;;;;;;5032506;28;20031;-58
2021/10/08 00:33:09;;;;;;;17.58;14.15;;;11.70;99.50;;;;;;5032425;28;20048;-58
2021/10/08 00:35:35;;;;;;;15.88;12.48;;;11.70;99.60;;;;;;5032444;28;20095;-57
2021/10/08 00:38:04;;;;;;;16.42;13.48;;;11.60;99.70;;;;;;5032440;28;20033;-59
2021/10/08 00:40:33;;;;;;;17.98;14.75;;;11.70;99.70;;;;;;5032481;28;20037;-58
2021/10/08 00:42:59;;;;;;;18.55;13.80;;;11.60;99.80;;;;;;5032192;28;20442;-58
2021/10/08 00:45:25;;;;;;;18.77;14.18;;;11.60;99.70;;;;;;5032640;28;20064;-57
2021/10/08 00:47:56;;;;;;;19.15;15.55;;;11.70;99.70;;;;;;5032880;28;20485;-62
2021/10/08 00:50:21;;;;;;;16.52;14.38;;;11.60;99.70;;;;;;5032119;28;20036;-59
2021/10/08 00:52:47;;;;;;;16.05;13.35;;;11.60;99.80;;;;;;5032468;28;20041;-60
2021/10/08 00:55:13;;;;;;;14.85;13.20;;;11.60;99.80;;;;;;5032504;28;20100;-60
2021/10/08 00:57:38;;;;;;;15.18;13.57;;;11.60;99.80;;;;;;5031541;28;20062;-58
2021/10/08 01:00:04;;;;;;;15.75;13.88;;;11.60;99.80;;;;;;5018017;28;20035;-58
2021/10/08 01:02:30;;;;;;;14.98;13.50;;;11.60;99.90;;;;;;5012273;28;20041;-57
2021/10/08 01:04:56;;;;;;;14.55;13.00;;;11.50;99.90;;;;;;5012467;28;20033;-57
2021/10/08 01:07:25;;;;;;;16.13;13.50;;;11.50;99.90;;;;;;5012487;28;20034;-60
2021/10/08 01:09:50;;;;;;;16.35;13.05;;;11.60;99.90;;;;;;5012566;28;20113;-60
2021/10/08 01:12:16;;;;;;;19.85;12.80;;;11.60;99.90;;;;;;5014695;28;20093;-58
2021/10/08 01:14:41;;;;;;;14.50;13.07;;;11.60;99.90;;;;;;5015914;28;20030;-60
2021/10/08 01:17:17;;;;;;;18.98;14.25;;;11.60;99.90;;;;;;5015803;28;20385;-61
2021/10/08 01:19:43;;;;;;;15.25;13.65;;;11.50;99.90;;;;;;5016034;28;20036;-61
2021/10/08 01:22:09;;;;;;;17.15;13.32;;;11.50;99.90;;;;;;5033699;28;20033;-59
2021/10/08 01:24:36;;;;;;;16.67;14.80;;;11.50;99.90;;;;;;5035556;28;20069;-61
2021/10/08 01:27:06;;;;;;;22.00;14.75;;;11.50;99.90;;;;;;5035752;28;20038;-59
2021/10/08 01:29:33;;;;;;;16.65;14.50;;;11.50;99.90;;;;;;5035175;28;20033;-59
2021/10/08 01:31:59;;;;;;;16.75;15.05;;;11.30;99.90;;;;;;5033791;28;20026;-58
2021/10/08 01:34:25;;;;;;;20.02;14.80;;;11.30;99.90;;;;;;5035055;28;20044;-58
2021/10/08 01:36:51;;;;;;;19.33;15.50;;;11.20;99.90;;;;;;5035450;28;20113;-60
2021/10/08 01:39:16;;;;;;;19.65;15.13;;;11.20;99.90;;;;;;5035051;28;20489;-60
2021/10/08 01:41:42;;;;;;;21.95;15.80;;;11.20;99.90;;;;;;5035250;28;20041;-61
2021/10/08 01:44:08;;;;;;;19.15;15.95;;;11.20;99.90;;;;;;5035067;28;20036;-59
2021/10/08 01:46:33;;;;;;;20.05;15.85;;;11.20;99.90;;;;;;5035341;28;20077;-56
2021/10/08 01:48:59;;;;;;;16.95;14.55;;;11.20;99.90;;;;;;5035023;28;20119;-58
2021/10/08 01:51:25;;;;;;;17.20;15.10;;;11.10;99.90;;;;;;5034847;28;20064;-61
2021/10/08 01:53:50;;;;;;;18.00;15.15;;;11.20;99.90;;;;;;5023887;28;20045;-61
2021/10/08 01:56:16;;;;;;;18.52;15.23;;;11.10;99.90;;;;;;5032834;28;20048;-58
2021/10/08 01:58:41;;;;;;;18.10;15.73;;;11.10;99.90;;;;;;5030537;28;20080;-60
2021/10/08 02:01:07;;;;;;;16.65;14.82;;;11.00;99.90;;;;;;5014460;28;20042;-56
2021/10/08 02:03:33;;;;;;;19.48;16.23;;;11.00;99.90;;;;;;5015301;28;20381;-60
2021/10/08 02:05:59;;;;;;;19.63;16.52;;;11.00;99.90;;;;;;5014951;28;20034;-56
2021/10/08 02:08:25;;;;;;;18.85;15.73;;;10.90;99.90;;;;;;5015169;28;20077;-59
2021/10/08 02:10:51;;;;;;;20.02;16.55;;;10.90;99.90;;;;;;5018475;28;20037;-59
2021/10/08 02:13:18;;;;;;;17.75;15.88;;;10.80;99.90;;;;;;5025293;28;20735;-59
2021/10/08 02:15:46;;;;;;;22.40;17.15;;;10.90;99.90;;;;;;5035116;28;20424;-59
2021/10/08 02:18:12;;;;;;;20.27;15.80;;;10.90;99.90;;;;;;5033977;28;20049;-58
2021/10/08 02:20:38;;;;;;;18.75;16.17;;;10.90;99.90;;;;;;5028698;28;20049;-58
2021/10/08 02:23:04;;;;;;;19.08;17.08;;;10.80;99.90;;;;;;5013331;28;20083;-55
2021/10/08 02:25:29;;;;;;;17.55;15.75;;;10.80;99.90;;;;;;5014846;28;20030;-60
2021/10/08 02:27:55;;;;;;;21.35;16.83;;;10.70;99.90;;;;;;5014756;28;20065;-59
2021/10/08 02:30:21;;;;;;;19.50;16.13;;;10.70;99.90;;;;;;5032244;28;20034;-58
2021/10/08 02:32:46;;;;;;;19.42;15.23;;;10.70;99.90;;;;;;5033888;28;20029;-58
2021/10/08 02:35:12;;;;;;;19.27;15.52;;;10.70;99.90;;;;;;5034017;28;20116;-59
2021/10/08 02:37:38;;;;;;;19.58;16.52;;;10.70;99.90;;;;;;5034310;28;20109;-59
2021/10/08 02:40:05;;;;;;;19.48;16.20;;;10.70;99.90;;;;;;5034816;28;20045;-58
2021/10/08 02:42:31;;;;;;;18.85;16.05;;;10.70;99.90;;;;;;5034207;28;20473;-59
2021/10/08 02:44:56;;;;;;;19.77;15.52;;;10.80;99.90;;;;;;5034691;28;20056;-57
2021/10/08 02:47:22;;;;;;;19.60;16.52;;;10.70;99.90;;;;;;5034556;28;20125;-60
2021/10/08 02:49:48;;;;;;;20.92;16.85;;;10.70;99.90;;;;;;5033010;28;20033;-57
2021/10/08 02:52:14;;;;;;;20.80;16.13;;;10.70;99.90;;;;;;5033400;28;20060;-58
2021/10/08 02:54:39;;;;;;;18.50;16.58;;;10.80;99.90;;;;;;5034047;28;20076;-62
2021/10/08 02:57:05;;;;;;;19.25;17.23;;;10.70;99.90;;;;;;5033699;28;20045;-58
2021/10/08 02:59:31;;;;;;;19.45;16.38;;;10.70;99.90;;;;;;5033728;28;20029;-60
2021/10/08 03:01:56;;;;;;;18.67;16.75;;;10.60;99.90;;;;;;5032924;28;20469;-60
2021/10/08 03:04:22;;;;;;;19.35;16.25;;;10.60;99.90;;;;;;5033979;28;20041;-60
2021/10/08 03:06:47;;;;;;;19.52;16.38;;;10.70;99.90;;;;;;5015442;28;20038;-57
2021/10/08 03:09:13;;;;;;;19.63;16.77;;;10.80;99.90;;;;;;5013998;28;20061;-56
2021/10/08 03:11:39;;;;;;;18.13;15.65;;;10.80;99.90;;;;;;5013657;28;20112;-58
2021/10/08 03:14:04;;;;;;;17.58;15.77;;;10.80;99.90;;;;;;5014138;28;20100;-59
2021/10/08 03:16:30;;;;;;;17.25;15.40;;;10.90;99.90;;;;;;5013864;28;20026;-57
2021/10/08 03:18:56;;;;;;;20.77;16.58;;;10.90;99.90;;;;;;5014139;28;20440;-60
2021/10/08 03:21:21;;;;;;;24.10;17.88;;;11.00;99.90;;;;;;5025108;28;20045;-56
2021/10/08 03:23:47;;;;;;;19.85;16.73;;;10.90;99.90;;;;;;5033276;28;20076;-60
2021/10/08 03:26:13;;;;;;;21.98;17.67;;;10.90;99.90;;;;;;5033418;28;20036;-59
2021/10/08 03:28:39;;;;;;;19.80;17.08;;;11.00;99.90;;;;;;5033255;28;20037;-59
2021/10/08 03:31:05;;;;;;;22.85;17.60;;;10.90;99.90;;;;;;5033196;28;20025;-57
2021/10/08 03:33:30;;;;;;;21.02;17.23;;;10.90;99.90;;;;;;5033616;28;20029;-58
2021/10/08 03:35:56;;;;;;;19.83;17.25;;;10.80;99.90;;;;;;5033231;28;20033;-59
2021/10/08 03:38:21;;;;;;;19.23;16.90;;;10.90;99.90;;;;;;5033097;28;20051;-60
2021/10/08 03:41:07;;;;;;;19.75;17.02;;;11.00;99.90;;;;;;5032784;28;20048;-60
2021/10/08 03:43:34;;;;;;;18.92;16.95;;;11.00;99.90;;;;;;5033633;28;20116;-60
2021/10/08 03:46:07;;;;;;;21.65;16.95;;;11.00;99.90;;;;;;5032666;28;20060;-56
2021/10/08 03:51:00;;;;;;;19.98;17.75;;;11.00;99.90;;;;;;5032740;28;20063;-59
2021/10/08 03:53:25;;;;;;;19.33;17.20;;;11.00;99.90;;;;;;5032193;28;20033;-61
2021/10/08 03:55:51;;;;;;;23.38;18.55;;;11.10;99.90;;;;;;5032734;28;20025;-61
2021/10/08 03:58:17;;;;;;;20.88;17.83;;;11.00;99.90;;;;;;5031449;28;20083;-59
2021/10/08 04:00:43;;;;;;;23.45;19.48;;;10.90;99.90;;;;;;5032720;28;20397;-61
2021/10/08 04:03:08;;;;;;;20.88;18.42;;;10.90;99.90;;;;;;5032681;28;20049;-60
2021/10/08 04:05:34;;;;;;;22.55;19.90;;;10.90;99.90;;;;;;5024827;28;20061;-58
2021/10/08 04:08:00;;;;;;;20.85;18.08;;;10.90;99.90;;;;;;5015822;28;20037;-60
2021/10/08 04:10:25;;;;;;;20.98;18.73;;;11.00;99.90;;;;;;5032692;28;20039;-60
2021/10/08 04:12:51;;;;;;;19.95;17.73;;;11.10;99.90;;;;;;5032679;28;20076;-57
2021/10/08 04:15:17;;;;;;;21.98;19.67;;;11.10;99.90;;;;;;5033603;28;20029;-61
2021/10/08 04:17:42;;;;;;;22.00;19.60;;;11.00;99.90;;;;;;5033284;28;20065;-60
2021/10/08 04:20:08;;;;;;;22.15;19.75;;;11.00;99.90;;;;;;5031577;28;20025;-58
2021/10/08 04:22:34;;;;;;;24.02;20.70;;;11.00;99.90;;;;;;5012797;28;20556;-60
2021/10/08 04:24:59;;;;;;;23.40;19.55;;;10.90;99.90;;;;;;5012815;28;20046;-60
2021/10/08 04:27:25;;;;;;;24.23;20.33;;;10.90;99.90;;;;;;5013533;28;20125;-58
2021/10/08 04:29:50;;;;;;;23.50;18.75;;;11.00;99.90;;;;;;5012088;28;20034;-61
2021/10/08 04:32:16;;;;;;;24.65;20.50;;;11.00;99.90;;;;;;5012851;28;20030;-60
2021/10/08 04:34:42;;;;;;;20.73;18.52;;;10.90;99.90;;;;;;5013103;28;20034;-57
2021/10/08 04:37:07;;;;;;;25.45;20.15;;;11.10;99.90;;;;;;5012864;28;20115;-58
2021/10/08 04:39:33;;;;;;;23.55;20.23;;;11.10;99.90;;;;;;5020774;28;20041;-60
2021/10/08 04:41:58;;;;;;;23.98;20.45;;;11.10;99.90;;;;;;5032846;28;20127;-60
2021/10/08 04:44:24;;;;;;;24.67;21.05;;;11.00;99.90;;;;;;5032126;28;20042;-60
2021/10/08 04:46:49;;;;;;;21.92;19.17;;;11.00;99.90;;;;;;5034897;28;20037;-60
2021/10/08 04:49:15;;;;;;;24.55;20.55;;;11.10;99.90;;;;;;5035664;28;20033;-61
2021/10/08 04:51:43;;;;;;;23.45;20.08;;;11.10;99.90;;;;;;5034410;28;20109;-59
2021/10/08 04:54:08;;;;;;;24.42;20.92;;;11.10;99.90;;;;;;5035163;28;20037;-58
2021/10/08 04:56:35;;;;;;;23.30;19.77;;;11.00;99.90;;;;;;5035901;28;20044;-57
2021/10/08 04:59:01;;;;;;;24.42;21.48;;;11.00;99.90;;;;;;5036183;28;20488;-62
2021/10/08 05:01:28;;;;;;;24.60;21.90;;;11.00;99.90;;;;;;5035746;28;20079;-57
2021/10/08 05:03:54;;;;;;;28.88;21.85;;;10.90;99.90;;;;;;5036512;28;20129;-62
2021/10/08 05:06:19;;;;;;;24.50;20.00;;;10.80;99.90;;;;;;5021602;28;20042;-60
2021/10/08 05:08:45;;;;;;;28.27;23.08;;;10.70;99.90;;;;;;5014433;28;20455;-61
2021/10/08 05:11:10;;;;;;;29.10;21.83;;;10.70;99.90;;;;;;5015526;28;20112;-57
2021/10/08 05:13:36;;;;;;;25.45;20.33;;;10.70;99.90;;;;;;5022003;28;20041;-59
2021/10/08 05:16:02;;;;;;;26.10;22.13;;;10.70;99.90;;;;;;5035696;28;20096;-60
2021/10/08 05:18:27;;;;;;;28.63;23.25;;;10.70;99.90;;;;;;5034454;28;20485;-61
2021/10/08 05:20:53;;;;;;;34.17;23.92;;;10.70;99.90;;;;;;5026597;28;20088;-63
2021/10/08 05:23:19;;;;;;;29.40;23.00;;;10.70;99.90;;;;;;5016123;28;20033;-60
2021/10/08 05:25:44;;;;;;;30.38;23.23;;;10.70;99.90;;;;;;5026495;28;20037;-60
2021/10/08 05:28:10;;;;;;;24.48;20.85;;;10.70;99.90;;;;;;5035117;28;20031;-60
2021/10/08 05:30:35;;;;;;;25.45;22.38;;;10.70;99.90;;;;;;5033244;28;20034;-61
2021/10/08 05:33:01;;;;;;;24.80;21.40;;;10.70;99.90;;;;;;5035364;28;20026;-59
2021/10/08 05:35:27;;;;;;;24.65;20.73;;;10.70;99.90;;;;;;5035184;28;20030;-57
2021/10/08 05:37:53;;;;;;;25.90;20.88;;;10.80;99.90;;;;;;5036036;28;20515;-57
2021/10/08 05:40:19;;;;;;;25.92;21.83;;;10.80;99.90;;;;;;5021769;28;20064;-59
2021/10/08 05:42:44;;;;;;;25.83;21.70;;;10.80;99.90;;;;;;5015404;28;20054;-61
2021/10/08 05:45:10;;;;;;;25.80;21.42;;;10.90;99.90;;;;;;5015602;28;20105;-60
2021/10/08 05:47:35;;;;;;;26.85;20.63;;;10.80;99.90;;;;;;5015296;28;20156;-60
2021/10/08 05:50:01;;;;;;;26.90;21.83;;;10.90;99.90;;;;;;5014976;28;20030;-58
2021/10/08 05:52:27;;;;;;;28.92;22.35;;;10.80;99.90;;;;;;5015053;28;20512;-58
2021/10/08 05:54:52;;;;;;;24.05;21.50;;;10.80;99.90;;;;;;5014974;28;20046;-59
2021/10/08 05:57:18;;;;;;;23.90;20.50;;;10.90;99.90;;;;;;5026943;28;20384;-57
2021/10/08 05:59:44;;;;;;;25.67;20.58;;;10.90;99.90;;;;;;5035229;28;20036;-58
2021/10/08 06:02:11;;;;;;;28.27;21.95;;;10.90;99.90;;;;;;5033966;28;20030;-58
2021/10/08 06:04:36;;;;;;;26.33;21.17;;;10.90;99.90;;;;;;5035065;28;20033;-62
2021/10/08 06:07:02;;;;;;;25.05;21.70;;;10.90;99.90;;;;;;5014882;28;20136;-58
2021/10/08 06:09:28;;;;;;;25.05;22.33;;;10.90;99.90;;;;;;5014842;28;20044;-60
2021/10/08 06:11:53;;;;;;;24.23;21.63;;;10.80;99.90;;;;;;5029221;28;20061;-58
2021/10/08 06:14:19;;;;;;;32.45;22.30;;;10.70;99.90;;;;;;5035280;28;20037;-59
2021/10/08 06:16:44;;;;;;;28.92;23.00;;;10.70;99.90;;;;;;5034694;28;20044;-58
2021/10/08 06:19:10;;;;;;;32.45;24.80;;;10.70;99.90;;;;;;5034432;28;20435;-56
2021/10/08 06:21:35;;;;;;;25.42;21.90;;;10.70;99.90;;;;;;5021091;28;20045;-58
2021/10/08 06:24:01;;;;;;;26.25;22.35;;;10.80;99.90;;;;;;5024252;28;20095;-61
2021/10/08 06:26:27;;;;;;;29.15;22.55;;;10.80;99.90;;;;;;5028079;28;20053;-61
2021/10/08 06:28:52;;;;;;;26.58;22.13;;;10.90;99.90;;;;;;5020369;28;20132;-60
2021/10/08 06:31:18;;;;;;;28.80;22.35;;;10.90;99.90;;;;;;5014810;28;20112;-61
2021/10/08 06:33:43;;;;;;;25.58;21.40;;;10.90;99.90;;;;;;5030271;28;20061;-66
2021/10/08 06:36:09;;;;;;;24.58;21.02;;;11.00;99.90;;;;;;5021597;28;20021;-62
2021/10/08 06:38:35;;;;;;;26.90;21.50;;;11.00;99.90;;;;;;5033777;28;20033;-59
2021/10/08 06:41:00;;;;;;;30.67;21.98;;;11.10;99.90;;;;;;5034156;28;20424;-62
2021/10/08 06:43:26;;;;;;;28.98;22.67;;;11.10;99.90;;;;;;5034509;28;20044;-60
2021/10/08 06:45:51;;;;;;;28.35;23.50;;;11.10;99.90;;;;;;5030045;28;20037;-61
2021/10/08 06:48:17;;;;;;;28.88;24.55;;;11.10;99.90;;;;;;5018592;28;20088;-62
2021/10/08 06:50:43;;;;;;;31.13;24.15;;;11.10;99.90;;;;;;5014557;28;20470;-58
2021/10/08 06:53:09;;;;;;;28.70;24.15;;;11.10;99.90;;;;;;5013390;28;20037;-60
2021/10/08 06:55:36;;;;;;;32.08;23.77;;;11.00;99.90;;;;;;5016909;28;20025;-61
2021/10/08 06:58:02;;;;;;;28.77;23.98;;;11.10;99.90;;;;;;5033805;28;20128;-60
2021/10/08 07:00:27;;;;;;;34.17;23.48;;;11.10;99.90;;;;;;5033324;28;20038;-57
2021/10/08 07:02:55;;;;;;;34.67;25.05;;;11.20;99.90;;;;;;5033940;28;20037;-56
2021/10/08 07:05:23;;;;;;;29.77;24.27;;;11.10;99.90;;;;;;5032610;28;20049;-61
2021/10/08 07:07:53;;;;;;;30.77;24.73;;;11.10;99.90;;;;;;5015296;28;20038;-58
2021/10/08 07:10:19;;;;;;;31.85;26.52;;;11.30;99.90;;;;;;5033338;28;20037;-60
2021/10/08 07:12:45;;;;;;;37.53;25.77;;;11.40;99.90;;;;;;5033203;28;20026;-57
2021/10/08 07:15:16;;;;;;;35.97;26.50;;;11.40;99.90;;;;;;5032977;28;20037;-60
2021/10/08 07:17:48;;;;;;;35.97;27.35;;;11.50;99.90;;;;;;5033158;28;20022;-63
2021/10/08 07:20:16;;;;;;;34.38;26.88;;;11.50;99.90;;;;;;5033359;28;20074;-58
2021/10/08 07:22:41;;;;;;;33.95;26.10;;;11.40;99.90;;;;;;5033134;28;20064;-59
2021/10/08 07:25:08;;;;;;;34.22;27.02;;;11.50;99.90;;;;;;5033583;28;20077;-60
2021/10/08 07:27:35;;;;;;;36.70;25.90;;;11.50;99.90;;;;;;5033340;28;20029;-60
2021/10/08 07:30:01;;;;;;;31.13;25.80;;;11.60;99.90;;;;;;5032912;28;20029;-59
2021/10/08 07:32:28;;;;;;;31.40;23.50;;;11.70;99.90;;;;;;5032634;28;20100;-59
2021/10/08 07:34:55;;;;;;;36.42;25.70;;;12.00;99.90;;;;;;5033210;28;20116;-58
2021/10/08 07:37:21;;;;;;;34.15;25.80;;;12.40;99.90;;;;;;5032877;28;20021;-57
2021/10/08 07:39:46;;;;;;;38.03;29.08;;;12.70;99.90;;;;;;5033198;28;20033;-59
2021/10/08 07:42:12;;;;;;;35.13;27.45;;;13.00;99.90;;;;;;5032990;28;20520;-61
2021/10/08 07:44:37;;;;;;;36.90;26.60;;;13.10;99.90;;;;;;5032296;28;20408;-65
2021/10/08 07:47:03;;;;;;;34.45;26.77;;;13.20;99.90;;;;;;5033297;28;20037;-63
2021/10/08 07:49:29;;;;;;;34.58;27.90;;;13.30;99.90;;;;;;5033192;28;20036;-58
2021/10/08 07:51:54;;;;;;;36.95;27.85;;;13.30;99.90;;;;;;5030486;28;20048;-61
2021/10/08 07:54:20;;;;;;;37.88;30.83;;;13.30;99.90;;;;;;5024060;28;20370;-59
2021/10/08 07:56:46;;;;;;;45.58;31.58;;;13.10;99.90;;;;;;5013616;28;20064;-61
2021/10/08 07:59:11;;;;;;;36.70;31.80;;;13.10;99.90;;;;;;5028588;28;20379;-60
2021/10/08 08:01:37;;;;;;;44.05;33.50;;;12.80;99.90;;;;;;5012567;28;20604;-61
2021/10/08 08:04:02;;;;;;;47.00;35.83;;;12.80;99.90;;;;;;5013752;28;20037;-56
2021/10/08 08:06:28;;;;;;;50.83;37.92;;;12.80;99.90;;;;;;5015678;28;20034;-59
2021/10/08 08:08:54;;;;;;;53.95;39.97;;;12.70;99.90;;;;;;5020851;28;20051;-58
2021/10/08 08:11:19;;;;;;;54.58;39.42;;;12.70;99.90;;;;;;5021265;28;20436;-58
2021/10/08 08:13:45;;;;;;;50.08;38.53;;;12.80;99.90;;;;;;5014730;28;20034;-58
2021/10/08 08:16:11;;;;;;;50.63;38.85;;;13.10;99.90;;;;;;5024126;28;20059;-60
2021/10/08 08:18:36;;;;;;;54.08;40.85;;;13.30;99.90;;;;;;5027181;28;20037;-60
2021/10/08 08:21:03;;;;;;;58.03;42.88;;;13.40;99.90;;;;;;5021364;28;20025;-64
2021/10/08 08:23:28;;;;;;;49.95;37.97;;;13.50;99.90;;;;;;5017255;28;20034;-62
2021/10/08 08:25:55;;;;;;;58.58;40.55;;;13.70;99.90;;;;;;5024335;28;20037;-59
2021/10/08 08:28:22;;;;;;;61.63;42.15;;;13.90;99.70;;;;;;5026544;28;20037;-61
2021/10/08 08:30:47;;;;;;;54.70;39.17;;;14.10;99.40;;;;;;5024416;28;20030;-58
2021/10/08 08:33:13;;;;;;;59.20;42.53;;;14.20;99.30;;;;;;5025456;28;20033;-60
2021/10/08 08:35:39;;;;;;;59.83;42.22;;;14.30;99.10;;;;;;5036874;28;20480;-61
2021/10/08 08:38:05;;;;;;;54.40;42.03;;;14.30;99.30;;;;;;5019347;28;20049;-59
2021/10/08 08:40:31;;;;;;;51.97;40.28;;;14.30;98.80;;;;;;5036552;28;20460;-61
2021/10/08 08:43:00;;;;;;;54.08;41.00;;;14.00;98.40;;;;;;5036483;28;20480;-59
2021/10/08 08:45:27;;;;;;;52.80;41.25;;;13.70;98.80;;;;;;5036800;28;20040;-55
2021/10/08 08:48:00;;;;;;;58.58;44.85;;;13.30;99.50;;;;;;5034764;28;20041;-59
2021/10/08 08:50:27;;;;;;;59.88;43.72;;;13.00;99.90;;;;;;5030655;28;20142;-54
2021/10/08 08:52:53;;;;;;;56.33;43.88;;;12.90;99.90;;;;;;5022216;28;20449;-56
2021/10/08 08:55:19;;;;;;;59.58;44.20;;;12.90;99.90;;;;;;5025347;28;20049;-65
2021/10/08 08:57:45;;;;;;;59.72;44.50;;;13.00;99.90;;;;;;5024465;28;20038;-61
2021/10/08 09:00:12;;;;;;;62.55;46.35;;;13.00;99.90;;;;;;5034046;28;20044;-57
2021/10/08 09:02:40;;;;;;;61.53;44.38;;;12.80;99.90;;;;;;5033294;28;20057;-58
2021/10/08 09:05:15;;;;;;;64.05;44.47;;;12.90;99.90;;;;;;5027365;28;20033;-57
2021/10/08 09:07:40;;;;;;;61.45;44.70;;;12.90;99.90;;;;;;5024596;28;20033;-59
2021/10/08 09:10:18;;;;;;;68.90;47.47;;;13.00;99.90;;;;;;5024444;28;20044;-61
2021/10/08 09:12:45;;;;;;;65.07;46.85;;;13.20;99.90;;;;;;5024271;28;20061;-60
2021/10/08 09:15:13;;;;;;;60.70;43.83;;;13.20;99.90;;;;;;5024115;28;20056;-60
2021/10/08 09:17:38;;;;;;;60.63;44.88;;;13.30;99.90;;;;;;5025244;28;20488;-61
2021/10/08 09:20:13;;;;;;;62.88;44.28;;;13.60;99.90;;;;;;5024350;28;20028;-58
2021/10/08 09:22:39;;;;;;;60.47;45.95;;;13.60;99.90;;;;;;5023501;28;20085;-59
2021/10/08 09:25:15;;;;;;;61.80;47.22;;;13.80;99.90;;;;;;5023405;28;20109;-58
2021/10/08 09:27:43;;;;;;;67.22;47.20;;;13.90;99.90;;;;;;5025284;28;20113;-58
2021/10/08 09:30:09;;;;;;;67.18;47.85;;;13.80;99.90;;;;;;5026674;28;20480;-60
2021/10/08 09:32:55;;;;;;;62.20;45.13;;;14.00;99.90;;;;;;5024932;28;20025;-60
2021/10/08 09:35:23;;;;;;;70.45;51.17;;;14.10;99.70;;;;;;5025696;28;20347;-59
2021/10/08 09:37:55;;;;;;;73.95;51.08;;;14.30;99.70;;;;;;5040727;28;20025;-61
2021/10/08 09:40:51;;;;;;;68.63;49.05;;;14.40;99.40;;;;;;5024438;28;20041;-60
2021/10/08 09:43:22;;;;;;;67.97;50.08;;;14.40;99.30;;;;;;5022992;28;20045;-57
2021/10/08 09:45:51;;;;;;;83.72;54.80;;;14.50;99.20;;;;;;5024914;28;20017;-59
2021/10/08 09:48:22;;;;;;;79.72;54.95;;;14.40;98.80;;;;;;5027191;28;20042;-59
2021/10/08 09:51:06;;;;;;;75.53;53.05;;;14.00;99.50;;;;;;5023317;28;20030;-58
2021/10/08 09:53:38;;;;;;;70.72;51.40;;;13.80;99.90;;;;;;5022067;28;20523;-59
2021/10/08 09:56:40;;;;;;;76.60;53.55;;;14.00;99.90;;;;;;5025146;28;20026;-58
2021/10/08 09:59:10;;;;;;;72.57;50.70;;;14.20;99.40;;;;;;5025511;28;20091;-58
2021/10/08 10:01:37;;;;;;;75.00;49.78;;;14.40;99.50;;;;;;5023989;28;20057;-56
2021/10/08 10:04:04;;;;;;;65.15;48.17;;;14.40;99.10;;;;;;5025059;28;20065;-58
2021/10/08 10:06:32;;;;;;;72.20;52.25;;;14.50;99.20;;;;;;5024678;28;20121;-62
2021/10/08 10:08:58;;;;;;;70.28;52.15;;;14.50;98.70;;;;;;5021455;28;20030;-60
2021/10/08 10:11:26;;;;;;;63.40;47.95;;;14.50;98.80;;;;;;5027742;28;20062;-57
2021/10/08 10:13:57;;;;;;;75.07;52.78;;;14.40;98.90;;;;;;5017575;28;20033;-58
2021/10/08 10:16:25;;;;;;;79.07;52.63;;;14.30;99.10;;;;;;5034479;28;20045;-57
2021/10/08 10:18:55;;;;;;;70.70;54.65;;;14.00;99.70;;;;;;5031829;28;20065;-60
2021/10/08 10:21:27;;;;;;;75.97;52.53;;;13.90;99.90;;;;;;5027377;28;20412;-60
2021/10/08 10:23:55;;;;;;;81.57;56.97;;;13.90;99.90;;;;;;5030511;28;20036;-62
2021/10/08 10:26:23;;;;;;;75.72;53.40;;;13.90;99.80;;;;;;5029746;28;20057;-61
2021/10/08 10:28:49;;;;;;;81.38;56.70;;;13.80;99.90;;;;;;5030760;28;20046;-61
2021/10/08 10:31:16;;;;;;;72.07;53.85;;;13.80;99.90;;;;;;5029830;28;20036;-59
2021/10/08 10:33:42;;;;;;;78.10;55.03;;;13.90;99.90;;;;;;5028113;28;20026;-61
2021/10/08 10:36:29;;;;;;;80.68;54.08;;;13.90;99.90;;;;;;5034004;28;20136;-61
2021/10/08 10:39:13;;;;;;;80.75;54.10;;;14.00;99.90;;;;;;5034323;28;20044;-56
2021/10/08 10:41:43;;;;;;;79.47;55.53;;;14.20;99.90;;;;;;5031492;28;20033;-58
2021/10/08 10:44:28;;;;;;;75.97;54.15;;;14.30;99.50;;;;;;5027069;28;20116;-61
2021/10/08 10:47:12;;;;;;;;;;;14.10;99.60;;;;;;5025511;28;20162;-62
2021/10/08 10:49:42;;;;;;;79.18;53.83;;;14.00;99.90;;;;;;5024006;28;19918;-61
2021/10/08 10:52:13;;;;;;;84.90;54.97;;;14.10;99.90;;;;;;5023623;28;20108;-60
2021/10/08 10:54:43;;;;;;;85.97;55.65;;;14.20;99.50;;;;;;5024427;28;20042;-59
2021/10/08 10:57:32;;;;;;;80.88;52.90;;;14.00;99.90;;;;;;5021974;28;20029;-60
2021/10/08 11:00:21;;;;;;;83.97;55.13;;;14.00;99.90;;;;;;5027639;28;20061;-61
2021/10/08 11:02:47;;;;;;;78.03;53.38;;;13.90;99.90;;;;;;5023812;28;20036;-56
2021/10/08 11:05:20;;;;;;;77.97;53.35;;;14.00;99.80;;;;;;5089187;28;20397;-57
2021/10/08 11:08:09;;;;;;;73.90;51.25;;;14.10;99.90;;;;;;5080303;28;20124;-61
2021/10/08 11:10:41;;;;;;;83.88;53.75;;;14.20;99.80;;;;;;5081832;28;20380;-60
2021/10/08 11:13:32;;;;;;;77.32;51.33;;;14.30;99.50;;;;;;5076540;28;20100;-59
2021/10/08 11:16:01;;;;;;;80.78;54.15;;;14.20;99.60;;;;;;5079892;28;20048;-59
2021/10/08 11:18:39;;;;;;;80.65;51.90;;;14.20;99.40;;;;;;5066243;28;20029;-61
2021/10/08 11:21:06;;;;;;;77.85;53.70;;;14.20;99.50;;;;;;5058882;28;20054;-59
2021/10/08 11:23:36;;;;;;;78.15;52.75;;;14.20;99.40;;;;;;5069976;28;20033;-60
2021/10/08 11:26:07;;;;;;;83.30;54.67;;;14.10;99.80;;;;;;5079185;28;20504;-59
2021/10/08 11:28:39;;;;;;;75.38;51.05;;;14.20;99.70;;;;;;5071575;28;20036;-59
2021/10/08 11:31:07;;;;;;;77.70;51.03;;;14.30;99.30;;;;;;5069249;28;20025;-62
2021/10/08 11:33:39;;;;;;;74.57;49.70;;;14.30;99.00;;;;;;5051766;28;20099;-57
2021/10/08 11:36:26;;;;;;;71.13;48.30;;;14.40;99.00;;;;;;5050233;28;20179;-58
2021/10/08 11:39:17;;;;;;;70.28;48.17;;;14.60;98.90;;;;;;5049751;28;20029;-56
2021/10/08 11:42:15;;;;;;;69.43;46.33;;;14.80;98.70;;;;;;5049568;28;20527;-55
2021/10/08 11:44:56;;;;;;;62.35;44.58;;;15.00;98.00;;;;;;5049537;28;20655;-57
2021/10/08 11:47:45;;;;;;;63.70;48.33;;;15.10;97.70;;;;;;5049710;28;20029;-58
2021/10/08 11:52:56;;;;;;;65.63;47.92;;;15.00;97.60;;;;;;5049209;28;20041;-61
2021/10/08 11:55:38;;;;;;;69.15;48.30;;;15.00;97.30;;;;;;5049994;28;20037;-58
2021/10/08 11:58:11;;;;;;;62.45;44.90;;;14.90;97.30;;;;;;5049931;28;20370;-57
2021/10/08 12:00:48;;;;;;;59.10;44.17;;;14.90;96.80;;;;;;5049183;28;20021;-59
2021/10/08 12:03:14;;;;;;;56.50;41.80;;;15.00;97.10;;;;;;5049613;28;20040;-60
2021/10/08 12:05:48;;;;;;;64.55;43.50;;;15.30;96.70;;;;;;5049437;28;20398;-57
2021/10/08 12:08:16;;;;;;;56.13;42.53;;;15.50;95.90;;;;;;5047928;28;20025;-60
2021/10/08 12:10:55;;;;;;;61.85;44.25;;;15.60;96.30;;;;;;5049316;28;20037;-60
2021/10/08 12:13:33;;;;;;;56.38;42.05;;;15.60;95.60;;;;;;5047726;28;20037;-59
2021/10/08 12:15:58;;;;;;;54.65;41.67;;;15.70;95.50;;;;;;5038792;28;20068;-58
2021/10/08 12:18:24;;;;;;;53.65;41.58;;;15.70;95.10;;;;;;5035232;28;20029;-60
2021/10/08 12:20:49;;;;;;;49.42;39.03;;;15.70;95.20;;;;;;5044361;28;20514;-58
2021/10/08 12:23:20;;;;;;;59.17;43.58;;;15.90;95.40;;;;;;5056298;28;20642;-59
2021/10/08 12:25:48;;;;;;;54.05;41.72;;;15.90;94.90;;;;;;5055763;28;20040;-57
2021/10/08 12:28:17;;;;;;;53.83;42.83;;;16.10;94.60;;;;;;5056711;28;20028;-59
2021/10/08 12:30:55;;;;;;;51.50;41.40;;;16.20;94.60;;;;;;5058162;28;20037;-59
2021/10/08 12:33:29;;;;;;;55.92;40.58;;;16.20;94.70;;;;;;5053619;28;20033;-55
2021/10/08 12:36:24;;;;;;;58.00;43.42;;;16.40;94.50;;;;;;5041764;28;20039;-58
2021/10/08 12:39:16;;;;;;;57.92;41.90;;;16.50;93.80;;;;;;5055156;28;20033;-59